createdAt,value
2022-10-13T00:00:17.869Z,970.76
2022-10-13T00:01:17.908Z,970.81
2022-10-13T00:02:18.156Z,970.75
2022-10-13T00:03:17.817Z,970.69
2022-10-13T00:04:17.802Z,970.73
2022-10-13T00:05:17.787Z,970.73
2022-10-13T00:06:17.794Z,970.70
2022-10-13T00:07:17.795Z,970.73
2022-10-13T00:08:17.801Z,970.72
2022-10-13T00:09:17.750Z,970.69
2022-10-13T00:10:18.271Z,970.68
2022-10-13T00:11:17.782Z,970.70
2022-10-13T00:12:17.874Z,970.64
2022-10-13T00:13:17.705Z,970.65
2022-10-13T00:14:17.715Z,970.63
2022-10-13T00:15:17.700Z,970.66
2022-10-13T00:16:17.675Z,970.63
2022-10-13T00:17:17.672Z,970.65
2022-10-13T00:18:17.656Z,970.63
2022-10-13T00:19:17.674Z,970.64
2022-10-13T00:20:17.637Z,970.66
2022-10-13T00:21:17.609Z,970.65
2022-10-13T00:22:17.949Z,970.65
2022-10-13T00:23:17.606Z,970.62
2022-10-13T00:24:17.608Z,970.60
2022-10-13T00:25:17.593Z,970.64
2022-10-13T00:26:17.575Z,970.60
2022-10-13T00:27:17.549Z,970.64
2022-10-13T00:28:17.558Z,970.58
2022-10-13T00:29:17.538Z,970.59
2022-10-13T00:30:17.559Z,970.61
2022-10-13T00:31:17.534Z,970.58
2022-10-13T00:32:17.786Z,970.62
2022-10-13T00:33:17.506Z,970.61
2022-10-13T00:34:17.468Z,970.58
2022-10-13T00:35:17.456Z,970.55
2022-10-13T00:36:17.492Z,970.50
2022-10-13T00:37:17.435Z,970.53
2022-10-13T00:38:17.454Z,970.53
2022-10-13T00:39:17.415Z,970.52
2022-10-13T00:40:17.431Z,970.48
2022-10-13T00:41:17.416Z,970.48
2022-10-13T00:42:17.650Z,970.48
2022-10-13T00:43:17.368Z,970.50
2022-10-13T00:44:17.358Z,970.55
2022-10-13T00:45:17.349Z,970.53
2022-10-13T00:46:17.390Z,970.57
2022-10-13T00:47:17.350Z,970.56
2022-10-13T00:48:17.323Z,970.52
2022-10-13T00:49:17.869Z,970.52
2022-10-13T00:50:17.280Z,970.47
2022-10-13T00:51:17.281Z,970.45
2022-10-13T00:52:17.539Z,970.45
2022-10-13T00:53:17.278Z,970.49
2022-10-13T00:54:17.239Z,970.45
2022-10-13T00:55:17.229Z,970.43
2022-10-13T00:56:17.226Z,970.44
2022-10-13T00:57:17.220Z,970.38
2022-10-13T00:58:17.212Z,970.41
2022-10-13T00:59:17.238Z,970.35
2022-10-13T01:00:17.260Z,970.36
2022-10-13T01:01:17.213Z,970.39
2022-10-13T01:02:17.636Z,970.42
2022-10-13T01:03:17.152Z,970.33
2022-10-13T01:04:17.154Z,970.36
2022-10-13T01:05:17.132Z,970.36
2022-10-13T01:06:22.517Z,970.33
2022-10-13T01:07:17.120Z,970.34
2022-10-13T01:08:17.119Z,970.31
2022-10-13T01:09:17.126Z,970.31
2022-10-13T01:10:17.055Z,970.25
2022-10-13T01:11:17.070Z,970.28
2022-10-13T01:12:17.471Z,970.29
2022-10-13T01:13:17.055Z,970.30
2022-10-13T01:14:17.037Z,970.33
2022-10-13T01:15:17.031Z,970.30
2022-10-13T01:16:17.006Z,970.28
2022-10-13T01:17:17.013Z,970.30
2022-10-13T01:18:17.017Z,970.27
2022-10-13T01:19:16.982Z,970.28
2022-10-13T01:20:16.975Z,970.25
2022-10-13T01:21:16.941Z,970.23
2022-10-13T01:22:17.481Z,970.22
2022-10-13T01:23:16.936Z,970.20
2022-10-13T01:24:16.924Z,970.21
2022-10-13T01:25:16.928Z,970.22
2022-10-13T01:26:16.902Z,970.23
2022-10-13T01:27:16.885Z,970.23
2022-10-13T01:28:16.923Z,970.25
2022-10-13T01:29:16.846Z,970.22
2022-10-13T01:30:16.849Z,970.23
2022-10-13T01:31:16.852Z,970.20
2022-10-13T01:32:17.305Z,970.23
2022-10-13T01:33:16.826Z,970.18
2022-10-13T01:34:16.819Z,970.24
2022-10-13T01:35:16.817Z,970.22
2022-10-13T01:36:16.780Z,970.25
2022-10-13T01:37:16.798Z,970.18
2022-10-13T01:38:16.783Z,970.22
2022-10-13T01:39:16.747Z,970.19
2022-10-13T01:40:16.748Z,970.19
2022-10-13T01:41:16.761Z,970.14
2022-10-13T01:42:17.211Z,970.15
2022-10-13T01:43:16.698Z,970.14
2022-10-13T01:44:16.692Z,970.09
2022-10-13T01:45:16.737Z,970.06
2022-10-13T01:46:16.692Z,970.11
2022-10-13T01:47:16.662Z,970.12
2022-10-13T01:48:16.673Z,970.11
2022-10-13T01:49:16.641Z,970.10
2022-10-13T01:50:16.628Z,970.09
2022-10-13T01:51:16.615Z,970.05
2022-10-13T01:52:16.966Z,970.05
2022-10-13T01:53:16.577Z,970.04
2022-10-13T01:54:16.615Z,970.02
2022-10-13T01:55:16.588Z,970.01
2022-10-13T01:56:16.568Z,969.97
2022-10-13T01:57:16.553Z,970.00
2022-10-13T01:58:16.535Z,969.95
2022-10-13T01:59:16.506Z,969.94
2022-10-13T02:00:16.531Z,969.91
2022-10-13T02:01:16.489Z,969.90
2022-10-13T02:02:16.993Z,969.89
2022-10-13T02:03:16.478Z,969.88
2022-10-13T02:04:16.467Z,969.89
2022-10-13T02:05:16.459Z,969.89
2022-10-13T02:06:16.471Z,969.87
2022-10-13T02:07:16.426Z,969.90
2022-10-13T02:08:16.413Z,969.92
2022-10-13T02:09:16.389Z,969.95
2022-10-13T02:10:16.416Z,969.98
2022-10-13T02:11:16.459Z,969.94
2022-10-13T02:12:16.831Z,969.88
2022-10-13T02:13:16.356Z,969.84
2022-10-13T02:14:16.355Z,969.82
2022-10-13T02:15:16.366Z,969.79
2022-10-13T02:16:16.354Z,969.86
2022-10-13T02:17:16.325Z,969.84
2022-10-13T02:18:16.290Z,969.81
2022-10-13T02:19:16.302Z,969.80
2022-10-13T02:20:16.281Z,969.77
2022-10-13T02:21:16.306Z,969.76
2022-10-13T02:22:16.655Z,969.71
2022-10-13T02:23:16.240Z,969.71
2022-10-13T02:24:16.237Z,969.68
2022-10-13T02:25:16.222Z,969.70
2022-10-13T02:26:16.227Z,969.65
2022-10-13T02:27:16.201Z,969.67
2022-10-13T02:28:16.258Z,969.69
2022-10-13T02:29:16.180Z,969.72
2022-10-13T02:30:16.187Z,969.65
2022-10-13T02:31:16.173Z,969.61
2022-10-13T02:32:16.508Z,969.63
2022-10-13T02:33:16.154Z,969.65
2022-10-13T02:34:16.136Z,969.63
2022-10-13T02:35:16.110Z,969.59
2022-10-13T02:36:16.155Z,969.57
2022-10-13T02:37:16.702Z,969.58
2022-10-13T02:38:16.112Z,969.57
2022-10-13T02:39:16.104Z,969.55
2022-10-13T02:40:16.054Z,969.51
2022-10-13T02:41:16.173Z,969.49
2022-10-13T02:42:16.047Z,969.49
2022-10-13T02:43:16.062Z,969.47
2022-10-13T02:44:16.019Z,969.46
2022-10-13T02:45:16.003Z,969.49
2022-10-13T02:46:15.998Z,969.49
2022-10-13T02:47:16.039Z,969.49
2022-10-13T02:48:15.972Z,969.54
2022-10-13T02:49:15.962Z,969.56
2022-10-13T02:50:15.956Z,969.58
2022-10-13T02:51:15.930Z,969.55
2022-10-13T02:52:15.945Z,969.55
2022-10-13T02:53:15.924Z,969.60
2022-10-13T02:54:15.908Z,969.54
2022-10-13T02:55:15.888Z,969.62
2022-10-13T02:56:15.875Z,969.52
2022-10-13T02:57:15.857Z,969.52
2022-10-13T02:58:15.865Z,969.48
2022-10-13T02:59:15.835Z,969.53
2022-10-13T03:00:15.870Z,969.45
2022-10-13T03:01:15.948Z,969.44
2022-10-13T03:02:15.811Z,969.42
2022-10-13T03:03:15.819Z,969.43
2022-10-13T03:04:15.818Z,969.41
2022-10-13T03:05:15.769Z,969.42
2022-10-13T03:06:15.763Z,969.38
2022-10-13T03:07:15.750Z,969.40
2022-10-13T03:08:15.778Z,969.39
2022-10-13T03:09:15.718Z,969.39
2022-10-13T03:10:15.717Z,969.37
2022-10-13T03:11:15.709Z,969.32
2022-10-13T03:12:15.701Z,969.36
2022-10-13T03:13:15.709Z,969.35
2022-10-13T03:14:15.678Z,969.38
2022-10-13T03:15:15.660Z,969.37
2022-10-13T03:16:15.645Z,969.40
2022-10-13T03:17:15.632Z,969.40
2022-10-13T03:18:15.628Z,969.48
2022-10-13T03:19:15.671Z,969.41
2022-10-13T03:20:15.615Z,969.42
2022-10-13T03:21:15.615Z,969.40
2022-10-13T03:22:15.682Z,969.41
2022-10-13T03:23:15.567Z,969.36
2022-10-13T03:24:15.553Z,969.44
2022-10-13T03:25:15.538Z,969.43
2022-10-13T03:26:15.545Z,969.31
2022-10-13T03:27:15.547Z,969.31
2022-10-13T03:28:15.572Z,969.30
2022-10-13T03:29:15.523Z,969.33
2022-10-13T03:30:15.504Z,969.31
2022-10-13T03:31:15.539Z,969.28
2022-10-13T03:32:15.475Z,969.24
2022-10-13T03:33:15.498Z,969.25
2022-10-13T03:34:15.452Z,969.22
2022-10-13T03:35:15.456Z,969.22
2022-10-13T03:36:15.424Z,969.21
2022-10-13T03:37:15.423Z,969.23
2022-10-13T03:38:15.424Z,969.19
2022-10-13T03:39:15.401Z,969.16
2022-10-13T03:40:15.369Z,969.15
2022-10-13T03:41:15.377Z,969.20
2022-10-13T03:42:15.363Z,969.18
2022-10-13T03:43:15.365Z,969.17
2022-10-13T03:44:15.337Z,969.11
2022-10-13T03:45:15.327Z,969.15
2022-10-13T03:46:15.314Z,969.19
2022-10-13T03:47:15.298Z,969.14
2022-10-13T03:48:15.335Z,969.13
2022-10-13T03:49:15.278Z,969.17
2022-10-13T03:50:15.279Z,969.16
2022-10-13T03:51:15.272Z,969.16
2022-10-13T03:52:15.383Z,969.13
2022-10-13T03:53:15.287Z,969.10
2022-10-13T03:54:15.213Z,969.17
2022-10-13T03:55:15.213Z,969.13
2022-10-13T03:56:15.250Z,969.11
2022-10-13T03:57:15.203Z,969.15
2022-10-13T03:58:15.171Z,969.05
2022-10-13T03:59:15.184Z,969.07
2022-10-13T04:00:15.165Z,968.99
2022-10-13T04:01:15.165Z,969.04
2022-10-13T04:02:15.134Z,969.05
2022-10-13T04:03:15.174Z,969.05
2022-10-13T04:04:15.107Z,969.06
2022-10-13T04:05:15.098Z,969.07
2022-10-13T04:06:15.073Z,969.03
2022-10-13T04:07:15.071Z,969.08
2022-10-13T04:08:15.065Z,969.02
2022-10-13T04:09:15.089Z,969.03
2022-10-13T04:10:15.052Z,969.02
2022-10-13T04:11:15.031Z,969.00
2022-10-13T04:12:18.422Z,968.94
2022-10-13T04:13:15.030Z,968.90
2022-10-13T04:14:15.023Z,968.95
2022-10-13T04:15:14.979Z,969.02
2022-10-13T04:16:14.982Z,968.92
2022-10-13T04:17:14.979Z,968.98
2022-10-13T04:18:14.997Z,968.95
2022-10-13T04:19:14.942Z,968.98
2022-10-13T04:20:14.945Z,969.01
2022-10-13T04:21:14.949Z,969.02
2022-10-13T04:22:14.916Z,969.05
2022-10-13T04:23:14.934Z,969.00
2022-10-13T04:24:14.880Z,968.97
2022-10-13T04:25:14.907Z,968.99
2022-10-13T04:26:14.852Z,968.96
2022-10-13T04:27:14.894Z,969.01
2022-10-13T04:28:14.892Z,969.02
2022-10-13T04:29:14.860Z,969.02
2022-10-13T04:30:14.829Z,969.01
2022-10-13T04:31:14.827Z,969.03
2022-10-13T04:32:14.823Z,969.00
2022-10-13T04:33:14.791Z,969.02
2022-10-13T04:34:14.805Z,968.96
2022-10-13T04:35:14.756Z,968.97
2022-10-13T04:36:14.752Z,968.96
2022-10-13T04:37:14.761Z,968.92
2022-10-13T04:38:14.788Z,968.97
2022-10-13T04:39:14.731Z,968.96
2022-10-13T04:40:14.731Z,969.00
2022-10-13T04:41:14.721Z,968.99
2022-10-13T04:42:14.702Z,969.02
2022-10-13T04:43:14.686Z,969.01
2022-10-13T04:44:14.693Z,969.04
2022-10-13T04:45:14.689Z,968.98
2022-10-13T04:46:14.674Z,968.99
2022-10-13T04:47:14.646Z,968.95
2022-10-13T04:48:14.629Z,969.00
2022-10-13T04:49:14.646Z,969.00
2022-10-13T04:50:14.586Z,968.98
2022-10-13T04:51:14.590Z,969.01
2022-10-13T04:52:14.609Z,968.95
2022-10-13T04:53:19.087Z,968.96
2022-10-13T04:54:14.547Z,968.93
2022-10-13T04:55:14.582Z,969.00
2022-10-13T04:56:14.520Z,969.01
2022-10-13T04:57:14.532Z,969.03
2022-10-13T04:58:14.550Z,968.98
2022-10-13T04:59:14.496Z,968.98
2022-10-13T05:00:14.498Z,968.96
2022-10-13T05:01:18.871Z,968.92
2022-10-13T05:02:14.461Z,968.86
2022-10-13T05:03:14.462Z,968.83
2022-10-13T05:04:14.464Z,968.87
2022-10-13T05:05:14.433Z,968.88
2022-10-13T05:06:14.435Z,968.89
2022-10-13T05:07:17.945Z,968.82
2022-10-13T05:08:14.410Z,968.93
2022-10-13T05:09:14.407Z,968.87
2022-10-13T05:10:14.363Z,968.87
2022-10-13T05:11:14.351Z,968.88
2022-10-13T05:12:14.345Z,968.82
2022-10-13T05:13:14.360Z,968.85
2022-10-13T05:14:14.324Z,968.86
2022-10-13T05:15:14.378Z,968.82
2022-10-13T05:16:14.339Z,968.83
2022-10-13T05:17:14.295Z,968.83
2022-10-13T05:18:14.289Z,968.81
2022-10-13T05:19:14.282Z,968.84
2022-10-13T05:20:14.260Z,968.86
2022-10-13T05:21:14.241Z,968.83
2022-10-13T05:22:14.255Z,968.84
2022-10-13T05:23:14.238Z,968.84
2022-10-13T05:24:14.205Z,968.84
2022-10-13T05:25:14.233Z,968.74
2022-10-13T05:26:14.196Z,968.78
2022-10-13T05:27:14.943Z,968.76
2022-10-13T05:28:14.446Z,968.78
2022-10-13T05:29:14.176Z,968.77
2022-10-13T05:30:14.169Z,968.78
2022-10-13T05:31:14.133Z,968.74
2022-10-13T05:32:14.983Z,968.82
2022-10-13T05:33:14.101Z,968.85
2022-10-13T05:34:14.108Z,968.84
2022-10-13T05:35:14.098Z,968.83
2022-10-13T05:36:14.178Z,968.79
2022-10-13T05:37:14.089Z,968.84
2022-10-13T05:38:15.018Z,968.80
2022-10-13T05:39:14.170Z,968.79
2022-10-13T05:40:14.026Z,968.80
2022-10-13T05:41:14.955Z,968.84
2022-10-13T05:42:14.029Z,968.81
2022-10-13T05:43:14.012Z,968.77
2022-10-13T05:44:13.987Z,968.78
2022-10-13T05:45:14.927Z,968.73
2022-10-13T05:46:13.971Z,968.76
2022-10-13T05:47:13.990Z,968.79
2022-10-13T05:48:13.968Z,968.77
2022-10-13T05:49:13.939Z,968.76
2022-10-13T05:50:13.923Z,968.84
2022-10-13T05:51:13.904Z,968.82
2022-10-13T05:52:13.923Z,968.80
2022-10-13T05:53:13.888Z,968.83
2022-10-13T05:54:13.920Z,968.82
2022-10-13T05:55:13.897Z,968.84
2022-10-13T05:56:13.856Z,968.88
2022-10-13T05:57:13.857Z,968.84
2022-10-13T05:58:14.029Z,968.85
2022-10-13T05:59:13.823Z,968.82
2022-10-13T06:00:13.877Z,968.86
2022-10-13T06:01:13.782Z,968.84
2022-10-13T06:02:13.789Z,968.80
2022-10-13T06:03:13.810Z,968.77
2022-10-13T06:04:13.757Z,968.74
2022-10-13T06:05:13.748Z,968.72
2022-10-13T06:06:13.764Z,968.73
2022-10-13T06:07:13.730Z,968.66
2022-10-13T06:08:13.733Z,968.70
2022-10-13T06:09:13.709Z,968.68
2022-10-13T06:10:13.710Z,968.66
2022-10-13T06:11:13.706Z,968.63
2022-10-13T06:12:13.671Z,968.65
2022-10-13T06:13:13.689Z,968.67
2022-10-13T06:14:13.670Z,968.60
2022-10-13T06:15:13.649Z,968.68
2022-10-13T06:16:13.647Z,968.67
2022-10-13T06:17:13.615Z,968.66
2022-10-13T06:18:13.615Z,968.63
2022-10-13T06:19:13.642Z,968.64
2022-10-13T06:20:13.587Z,968.72
2022-10-13T06:21:13.603Z,968.70
2022-10-13T06:22:13.600Z,968.70
2022-10-13T06:23:13.566Z,968.68
2022-10-13T06:24:13.620Z,968.71
2022-10-13T06:25:13.517Z,968.70
2022-10-13T06:26:13.504Z,968.72
2022-10-13T06:27:13.506Z,968.74
2022-10-13T06:28:13.571Z,968.71
2022-10-13T06:29:13.520Z,968.73
2022-10-13T06:30:13.478Z,968.72
2022-10-13T06:31:13.455Z,968.70
2022-10-13T06:32:13.480Z,968.74
2022-10-13T06:33:13.433Z,968.71
2022-10-13T06:34:13.433Z,968.71
2022-10-13T06:35:13.433Z,968.81
2022-10-13T06:36:13.438Z,968.75
2022-10-13T06:37:13.410Z,968.81
2022-10-13T06:38:13.394Z,968.80
2022-10-13T06:39:13.364Z,968.80
2022-10-13T06:40:13.341Z,968.79
2022-10-13T06:41:13.345Z,968.79
2022-10-13T06:42:13.359Z,968.82
2022-10-13T06:43:13.338Z,968.84
2022-10-13T06:44:13.326Z,968.86
2022-10-13T06:45:14.467Z,968.82
2022-10-13T06:46:13.301Z,968.88
2022-10-13T06:47:13.269Z,968.93
2022-10-13T06:48:13.294Z,968.94
2022-10-13T06:49:13.269Z,968.93
2022-10-13T06:50:13.249Z,968.93
2022-10-13T06:51:13.254Z,968.88
2022-10-13T06:52:13.233Z,968.93
2022-10-13T06:53:13.231Z,968.93
2022-10-13T06:54:13.207Z,968.85
2022-10-13T06:55:13.220Z,968.91
2022-10-13T06:56:13.211Z,968.89
2022-10-13T06:57:13.166Z,968.95
2022-10-13T06:58:13.184Z,968.87
2022-10-13T06:59:13.874Z,968.85
2022-10-13T07:00:14.054Z,968.88
2022-10-13T07:01:13.131Z,968.88
2022-10-13T07:02:13.144Z,968.85
2022-10-13T07:03:13.103Z,968.89
2022-10-13T07:04:13.131Z,968.89
2022-10-13T07:05:13.106Z,968.94
2022-10-13T07:06:13.067Z,968.89
2022-10-13T07:07:13.062Z,968.87
2022-10-13T07:08:13.085Z,968.89
2022-10-13T07:09:13.046Z,968.90
2022-10-13T07:10:13.052Z,968.92
2022-10-13T07:11:15.907Z,968.90
2022-10-13T07:12:13.007Z,968.88
2022-10-13T07:13:13.026Z,968.89
2022-10-13T07:14:13.012Z,968.91
2022-10-13T07:15:12.985Z,968.85
2022-10-13T07:16:13.002Z,968.90
2022-10-13T07:17:12.948Z,968.95
2022-10-13T07:18:12.935Z,968.89
2022-10-13T07:19:12.917Z,968.84
2022-10-13T07:20:12.949Z,968.86
2022-10-13T07:21:12.890Z,968.75
2022-10-13T07:22:12.907Z,968.77
2022-10-13T07:23:13.058Z,968.74
2022-10-13T07:24:12.875Z,968.77
2022-10-13T07:25:12.849Z,968.79
2022-10-13T07:26:12.855Z,968.82
2022-10-13T07:27:12.822Z,968.82
2022-10-13T07:28:12.932Z,968.82
2022-10-13T07:29:12.837Z,968.83
2022-10-13T07:30:12.791Z,968.83
2022-10-13T07:31:12.816Z,968.80
2022-10-13T07:32:12.786Z,968.85
2022-10-13T07:33:12.794Z,968.85
2022-10-13T07:34:12.763Z,968.83
2022-10-13T07:35:12.741Z,968.82
2022-10-13T07:36:12.722Z,968.84
2022-10-13T07:37:12.728Z,968.81
2022-10-13T07:38:12.717Z,968.84
2022-10-13T07:39:12.715Z,968.82
2022-10-13T07:40:12.688Z,968.81
2022-10-13T07:41:12.679Z,968.85
2022-10-13T07:42:12.690Z,968.84
2022-10-13T07:43:12.650Z,968.88
2022-10-13T07:44:12.635Z,968.88
2022-10-13T07:45:12.626Z,968.92
2022-10-13T07:46:12.614Z,968.87
2022-10-13T07:47:12.635Z,968.83
2022-10-13T07:48:12.741Z,968.81
2022-10-13T07:49:16.046Z,968.83
2022-10-13T07:50:12.571Z,968.87
2022-10-13T07:51:12.563Z,968.86
2022-10-13T07:52:12.531Z,968.92
2022-10-13T07:53:12.552Z,968.96
2022-10-13T07:54:12.572Z,968.94
2022-10-13T07:55:12.506Z,968.94
2022-10-13T07:56:12.538Z,968.92
2022-10-13T07:57:12.487Z,968.88
2022-10-13T07:58:12.465Z,968.87
2022-10-13T07:59:12.474Z,968.87
2022-10-13T08:00:12.474Z,968.87
2022-10-13T08:01:12.491Z,968.91
2022-10-13T08:02:12.513Z,968.95
2022-10-13T08:03:12.485Z,968.89
2022-10-13T08:04:12.405Z,968.91
2022-10-13T08:05:12.411Z,968.87
2022-10-13T08:06:12.434Z,968.83
2022-10-13T08:07:12.365Z,968.82
2022-10-13T08:08:12.559Z,968.87
2022-10-13T08:09:12.373Z,968.94
2022-10-13T08:10:12.354Z,968.89
2022-10-13T08:11:14.699Z,968.94
2022-10-13T08:12:12.355Z,968.87
2022-10-13T08:13:12.339Z,968.92
2022-10-13T08:14:12.323Z,968.92
2022-10-13T08:15:12.317Z,968.95
2022-10-13T08:16:13.279Z,968.97
2022-10-13T08:17:12.290Z,968.94
2022-10-13T08:18:12.301Z,968.96
2022-10-13T08:19:12.239Z,968.95
2022-10-13T08:20:12.625Z,969.00
2022-10-13T08:21:39.132Z,968.95
2022-10-13T08:22:12.262Z,968.96
2022-10-13T08:23:12.238Z,968.99
2022-10-13T08:24:12.183Z,968.95
2022-10-13T08:25:12.203Z,968.96
2022-10-13T08:26:12.184Z,968.94
2022-10-13T08:27:12.185Z,968.94
2022-10-13T08:28:12.210Z,968.98
2022-10-13T08:29:27.531Z,968.98
2022-10-13T08:30:12.180Z,968.98
2022-10-13T08:31:12.344Z,968.88
2022-10-13T08:32:12.096Z,968.90
2022-10-13T08:33:12.093Z,968.84
2022-10-13T08:34:12.082Z,968.84
2022-10-13T08:35:12.102Z,968.80
2022-10-13T08:36:12.054Z,968.74
2022-10-13T08:37:12.062Z,968.77
2022-10-13T08:38:12.041Z,968.70
2022-10-13T08:39:12.020Z,968.74
2022-10-13T08:40:12.000Z,968.74
2022-10-13T08:41:12.003Z,968.81
2022-10-13T08:42:12.026Z,968.80
2022-10-13T08:43:12.002Z,968.79
2022-10-13T08:44:49.904Z,968.79
2022-10-13T08:46:11.981Z,968.81
2022-10-13T08:47:11.919Z,968.80
2022-10-13T08:48:11.981Z,968.79
2022-10-13T08:49:11.943Z,968.81
2022-10-13T08:50:11.904Z,968.79
2022-10-13T08:51:11.902Z,968.79
2022-10-13T08:52:11.879Z,968.81
2022-10-13T08:53:11.857Z,968.81
2022-10-13T08:54:11.894Z,968.80
2022-10-13T08:55:11.831Z,968.85
2022-10-13T08:56:12.001Z,968.85
2022-10-13T08:57:11.868Z,968.87
2022-10-13T08:58:11.797Z,968.83
2022-10-13T08:59:11.825Z,968.87
2022-10-13T09:00:11.786Z,968.88
2022-10-13T09:01:11.840Z,968.82
2022-10-13T09:02:11.871Z,968.83
2022-10-13T09:03:11.765Z,968.80
2022-10-13T09:04:11.725Z,968.78
2022-10-13T09:05:11.750Z,968.78
2022-10-13T09:06:11.718Z,968.79
2022-10-13T09:07:11.706Z,968.76
2022-10-13T09:08:11.693Z,968.80
2022-10-13T09:09:11.978Z,968.77
2022-10-13T09:10:11.942Z,968.79
2022-10-13T09:11:11.666Z,968.79
2022-10-13T09:12:11.714Z,968.69
2022-10-13T09:13:11.639Z,968.71
2022-10-13T09:14:11.789Z,968.73
2022-10-13T09:15:11.594Z,968.71
2022-10-13T09:16:11.651Z,968.73
2022-10-13T09:17:11.634Z,968.75
2022-10-13T09:18:11.643Z,968.72
2022-10-13T09:19:11.571Z,968.77
2022-10-13T09:20:11.580Z,968.80
2022-10-13T09:21:11.638Z,968.80
2022-10-13T09:22:11.797Z,968.79
2022-10-13T09:23:11.776Z,968.85
2022-10-13T09:24:11.520Z,968.82
2022-10-13T09:25:11.540Z,968.82
2022-10-13T09:26:11.490Z,968.78
2022-10-13T09:27:11.514Z,968.81
2022-10-13T09:28:11.496Z,968.83
2022-10-13T09:29:11.462Z,968.88
2022-10-13T09:30:11.733Z,968.87
2022-10-13T09:31:13.875Z,968.86
2022-10-13T09:32:11.451Z,968.88
2022-10-13T09:33:11.801Z,968.91
2022-10-13T09:34:11.401Z,968.89
2022-10-13T09:35:11.414Z,968.89
2022-10-13T09:36:11.472Z,968.89
2022-10-13T09:37:11.361Z,968.85
2022-10-13T09:38:11.396Z,968.86
2022-10-13T09:39:11.385Z,968.87
2022-10-13T09:40:11.438Z,968.85
2022-10-13T09:41:11.313Z,968.92
2022-10-13T09:42:11.380Z,968.96
2022-10-13T09:43:11.295Z,968.95
2022-10-13T09:44:11.301Z,968.97
2022-10-13T09:45:11.277Z,968.96
2022-10-13T09:46:11.332Z,968.96
2022-10-13T09:47:11.245Z,968.96
2022-10-13T09:48:11.275Z,968.95
2022-10-13T09:49:11.231Z,968.98
2022-10-13T09:50:11.292Z,968.93
2022-10-13T09:51:11.226Z,968.94
2022-10-13T09:52:11.239Z,968.98
2022-10-13T09:53:11.194Z,968.99
2022-10-13T09:54:11.194Z,968.99
2022-10-13T09:55:11.568Z,968.93
2022-10-13T09:56:11.182Z,968.94
2022-10-13T09:57:11.189Z,968.96
2022-10-13T09:58:11.137Z,968.96
2022-10-13T09:59:11.127Z,968.95
2022-10-13T10:00:11.153Z,968.96
2022-10-13T10:01:11.141Z,968.99
2022-10-13T10:02:13.364Z,969.00
2022-10-13T10:03:11.152Z,969.00
2022-10-13T10:04:12.034Z,969.02
2022-10-13T10:05:11.052Z,969.03
2022-10-13T10:07:11.027Z,969.01
2022-10-13T10:08:11.168Z,969.02
2022-10-13T10:09:11.029Z,969.09
2022-10-13T10:10:10.988Z,969.06
2022-10-13T10:11:10.994Z,969.11
2022-10-13T10:12:11.270Z,969.06
2022-10-13T10:13:11.065Z,969.13
2022-10-13T10:14:11.047Z,969.11
2022-10-13T10:15:11.073Z,969.16
2022-10-13T10:16:10.984Z,969.17
2022-10-13T10:17:10.906Z,969.11
2022-10-13T10:18:10.916Z,969.14
2022-10-13T10:19:11.268Z,969.13
2022-10-13T10:20:10.910Z,969.16
2022-10-13T10:21:10.903Z,969.11
2022-10-13T10:22:10.859Z,969.17
2022-10-13T10:23:10.875Z,969.14
2022-10-13T10:24:10.996Z,969.14
2022-10-13T10:25:10.815Z,969.20
2022-10-13T10:26:10.815Z,969.14
2022-10-13T10:27:11.687Z,969.13
2022-10-13T10:28:10.814Z,969.15
2022-10-13T10:29:10.798Z,969.17
2022-10-13T10:30:10.767Z,969.16
2022-10-13T10:31:10.807Z,969.18
2022-10-13T10:32:10.757Z,969.15
2022-10-13T10:33:10.795Z,969.13
2022-10-13T10:34:14.899Z,969.19
2022-10-13T10:35:10.723Z,969.17
2022-10-13T10:36:10.715Z,969.14
2022-10-13T10:37:10.741Z,969.15
2022-10-13T10:38:10.703Z,969.14
2022-10-13T10:39:10.698Z,969.13
2022-10-13T10:40:10.715Z,969.19
2022-10-13T10:41:10.959Z,969.16
2022-10-13T10:42:10.660Z,969.18
2022-10-13T10:43:10.626Z,969.21
2022-10-13T10:44:10.640Z,969.19
2022-10-13T10:45:10.599Z,969.17
2022-10-13T10:46:10.606Z,969.25
2022-10-13T10:47:10.614Z,969.26
2022-10-13T10:48:10.579Z,969.24
2022-10-13T10:49:10.555Z,969.24
2022-10-13T10:50:10.567Z,969.25
2022-10-13T10:51:10.534Z,969.26
2022-10-13T10:52:10.516Z,969.23
2022-10-13T10:53:10.521Z,969.21
2022-10-13T10:54:10.494Z,969.22
2022-10-13T10:55:10.523Z,969.23
2022-10-13T10:56:10.478Z,969.23
2022-10-13T10:57:10.475Z,969.24
2022-10-13T10:58:10.518Z,969.26
2022-10-13T10:59:10.442Z,969.27
2022-10-13T11:00:10.531Z,969.22
2022-10-13T11:01:10.468Z,969.26
2022-10-13T11:02:10.412Z,969.22
2022-10-13T11:03:10.417Z,969.21
2022-10-13T11:04:10.385Z,969.23
2022-10-13T11:05:10.400Z,969.24
2022-10-13T11:06:10.375Z,969.25
2022-10-13T11:07:10.371Z,969.21
2022-10-13T11:08:10.333Z,969.20
2022-10-13T11:09:10.365Z,969.17
2022-10-13T11:10:10.364Z,969.20
2022-10-13T11:11:10.317Z,969.18
2022-10-13T11:12:10.316Z,969.17
2022-10-13T11:13:10.283Z,969.14
2022-10-13T11:14:10.256Z,969.16
2022-10-13T11:15:10.281Z,969.17
2022-10-13T11:16:10.250Z,969.13
2022-10-13T11:17:10.280Z,969.16
2022-10-13T11:18:10.210Z,969.16
2022-10-13T11:19:11.060Z,969.14
2022-10-13T11:20:10.336Z,969.11
2022-10-13T11:21:10.194Z,969.13
2022-10-13T11:22:10.215Z,969.16
2022-10-13T11:23:10.157Z,969.11
2022-10-13T11:24:10.155Z,969.11
2022-10-13T11:25:10.159Z,969.12
2022-10-13T11:26:10.142Z,969.14
2022-10-13T11:27:10.138Z,969.12
2022-10-13T11:28:10.113Z,969.06
2022-10-13T11:29:10.092Z,969.06
2022-10-13T11:30:10.080Z,969.11
2022-10-13T11:31:10.090Z,969.11
2022-10-13T11:32:10.059Z,969.12
2022-10-13T11:33:10.060Z,969.09
2022-10-13T11:34:10.033Z,969.10
2022-10-13T11:35:10.032Z,969.14
2022-10-13T11:36:10.049Z,969.12
2022-10-13T11:37:10.008Z,969.14
2022-10-13T11:38:13.889Z,969.11
2022-10-13T11:39:10.033Z,969.11
2022-10-13T11:40:09.998Z,969.15
2022-10-13T11:41:09.952Z,969.14
2022-10-13T11:42:10.050Z,969.14
2022-10-13T11:43:09.953Z,969.13
2022-10-13T11:44:09.934Z,969.15
2022-10-13T11:45:09.937Z,969.15
2022-10-13T11:46:09.905Z,969.14
2022-10-13T11:47:09.907Z,969.13
2022-10-13T11:49:09.911Z,969.09
2022-10-13T11:50:09.854Z,969.12
2022-10-13T11:51:12.516Z,969.16
2022-10-13T11:52:09.864Z,969.13
2022-10-13T11:53:09.939Z,969.13
2022-10-13T11:54:09.812Z,969.13
2022-10-13T11:55:09.794Z,969.14
2022-10-13T11:56:09.784Z,969.10
2022-10-13T11:57:09.765Z,969.16
2022-10-13T11:58:09.766Z,969.18
2022-10-13T11:59:09.786Z,969.18
2022-10-13T12:00:09.761Z,969.18
2022-10-13T12:01:09.730Z,969.15
2022-10-13T12:02:09.741Z,969.23
2022-10-13T12:03:09.772Z,969.20
2022-10-13T12:04:09.696Z,969.18
2022-10-13T12:05:09.686Z,969.18
2022-10-13T12:06:09.763Z,969.19
2022-10-13T12:07:09.683Z,969.18
2022-10-13T12:08:09.645Z,969.19
2022-10-13T12:09:09.665Z,969.20
2022-10-13T12:10:09.622Z,969.17
2022-10-13T12:11:09.640Z,969.18
2022-10-13T12:12:09.619Z,969.16
2022-10-13T12:13:09.585Z,969.19
2022-10-13T12:14:09.615Z,969.20
2022-10-13T12:15:09.626Z,969.17
2022-10-13T12:16:09.599Z,969.19
2022-10-13T12:17:12.256Z,969.20
2022-10-13T12:18:09.535Z,969.20
2022-10-13T12:19:09.548Z,969.17
2022-10-13T12:20:09.505Z,969.18
2022-10-13T12:21:10.072Z,969.17
2022-10-13T12:22:09.502Z,969.13
2022-10-13T12:23:09.512Z,969.18
2022-10-13T12:24:09.461Z,969.14
2022-10-13T12:25:09.490Z,969.14
2022-10-13T12:26:09.468Z,969.17
2022-10-13T12:27:09.450Z,969.17
2022-10-13T12:28:09.440Z,969.16
2022-10-13T12:29:09.422Z,969.19
2022-10-13T12:30:09.429Z,969.18
2022-10-13T12:31:09.408Z,969.19